createdAt,value
2019-06-08T00:02:08.545Z,14.40
2019-06-08T00:04:39.616Z,14.42
2019-06-08T00:07:09.816Z,14.40
2019-06-08T00:09:41.066Z,14.39
2019-06-08T00:12:12.952Z,14.37
2019-06-08T00:14:44.290Z,14.28
2019-06-08T00:17:30.308Z,14.21
2019-06-08T00:19:48.323Z,14.12
2019-06-08T00:22:19.791Z,14.03
2019-06-08T00:24:51.024Z,13.98
2019-06-08T00:27:23.052Z,13.97
2019-06-08T00:29:54.940Z,13.98
2019-06-08T00:32:26.104Z,13.99
2019-06-08T00:34:57.478Z,13.99
2019-06-08T00:37:28.463Z,14.02
2019-06-08T00:39:58.652Z,14.03
2019-06-08T00:42:29.975Z,14.03
2019-06-08T00:45:01.264Z,13.95
2019-06-08T00:47:47.049Z,13.87
2019-06-08T00:50:08.542Z,13.78
2019-06-08T00:52:39.788Z,13.71
2019-06-08T00:55:10.968Z,13.61
2019-06-08T00:57:42.185Z,13.56
2019-06-08T01:00:13.381Z,13.57
2019-06-08T01:02:44.579Z,13.66
2019-06-08T01:05:15.641Z,13.78
2019-06-08T01:07:46.990Z,13.92
2019-06-08T01:10:19.217Z,13.98
2019-06-08T01:12:50.534Z,14.04
2019-06-08T01:15:27.735Z,14.08
2019-06-08T01:18:02.683Z,14.16
2019-06-08T01:20:27.519Z,14.24
2019-06-08T01:22:58.718Z,14.31
2019-06-08T01:25:30.153Z,14.33
2019-06-08T01:28:01.061Z,14.34
2019-06-08T01:30:32.545Z,14.36
2019-06-08T01:33:03.654Z,14.38
2019-06-08T01:35:34.929Z,14.38
2019-06-08T01:38:06.048Z,14.38
2019-06-08T01:40:37.486Z,14.39
2019-06-08T01:43:08.395Z,14.39
2019-06-08T01:45:39.657Z,14.38
2019-06-08T01:48:20.140Z,14.34
2019-06-08T01:50:42.723Z,14.32
2019-06-08T01:53:13.951Z,14.29
2019-06-08T01:55:44.982Z,14.27
2019-06-08T01:58:16.160Z,14.27
2019-06-08T02:00:47.362Z,14.29
2019-06-08T02:03:18.680Z,14.31
2019-06-08T02:05:49.760Z,14.32
2019-06-08T02:08:20.901Z,14.33
2019-06-08T02:10:51.897Z,14.33
2019-06-08T02:13:22.970Z,14.35
2019-06-08T02:15:54.019Z,14.34
2019-06-08T02:18:36.327Z,14.35
2019-06-08T02:20:58.063Z,14.40
2019-06-08T02:23:31.108Z,14.41
2019-06-08T02:26:02.252Z,14.43
2019-06-08T02:28:33.555Z,14.45
2019-06-08T02:31:05.064Z,14.47
2019-06-08T02:33:37.346Z,14.47
2019-06-08T02:36:08.771Z,14.45
2019-06-08T02:38:39.841Z,14.46
2019-06-08T02:41:11.067Z,14.43
2019-06-08T02:43:42.145Z,14.44
2019-06-08T02:46:13.373Z,14.45
2019-06-08T02:49:02.441Z,14.44
2019-06-08T02:51:18.087Z,14.46
2019-06-08T02:53:49.924Z,14.45
2019-06-08T02:56:23.771Z,14.44
2019-06-08T02:58:57.983Z,14.42
2019-06-08T03:01:31.302Z,14.41
2019-06-08T03:04:02.897Z,14.44
2019-06-08T03:06:38.898Z,14.44
2019-06-08T03:09:09.749Z,14.42
2019-06-08T03:11:42.000Z,14.40
2019-06-08T03:14:13.540Z,14.41
2019-06-08T03:16:44.576Z,14.42
2019-06-08T03:19:21.899Z,14.45
2019-06-08T03:21:48.636Z,14.49
2019-06-08T03:24:19.801Z,14.54
2019-06-08T03:26:50.829Z,14.58
2019-06-08T03:29:22.023Z,14.59
2019-06-08T03:31:56.395Z,14.61
2019-06-08T03:34:25.922Z,14.62
2019-06-08T03:36:57.695Z,14.62
2019-06-08T03:39:28.105Z,14.69
2019-06-08T03:41:59.370Z,14.70
2019-06-08T03:44:30.416Z,14.72
2019-06-08T03:47:01.591Z,14.71
2019-06-08T03:49:44.949Z,14.72
2019-06-08T03:52:05.519Z,14.71
2019-06-08T03:54:38.902Z,14.71
2019-06-08T03:57:09.258Z,14.62
2019-06-08T03:59:41.064Z,14.51
2019-06-08T04:02:13.098Z,14.48
2019-06-08T04:04:46.073Z,14.54
2019-06-08T04:07:16.842Z,14.60
2019-06-08T04:09:47.874Z,14.65
2019-06-08T04:12:18.165Z,14.70
2019-06-08T04:14:50.494Z,14.72
2019-06-08T04:17:21.552Z,14.73
2019-06-08T04:20:09.425Z,14.72
2019-06-08T04:22:25.560Z,14.72
2019-06-08T04:24:56.901Z,14.73
2019-06-08T04:27:27.879Z,14.73
2019-06-08T04:29:59.059Z,14.73
2019-06-08T04:32:30.212Z,14.70
2019-06-08T04:35:01.447Z,14.71
2019-06-08T04:37:32.743Z,14.76
2019-06-08T04:40:06.295Z,14.56
2019-06-08T04:42:39.232Z,14.22
2019-06-08T04:45:11.066Z,14.00
2019-06-08T04:47:43.632Z,13.91
2019-06-08T04:50:22.471Z,14.01
2019-06-08T04:52:48.041Z,14.06
2019-06-08T04:55:19.944Z,13.97
2019-06-08T04:57:51.100Z,13.90
2019-06-08T05:00:22.246Z,13.93
2019-06-08T05:02:53.967Z,13.92
2019-06-08T05:05:25.020Z,13.86
2019-06-08T05:07:56.224Z,13.90
2019-06-08T05:10:27.190Z,13.95
2019-06-08T05:12:58.545Z,13.99
2019-06-08T05:15:29.416Z,14.08
2019-06-08T05:18:00.710Z,14.16
2019-06-08T05:20:39.016Z,14.23
2019-06-08T05:23:03.752Z,14.29
2019-06-08T05:25:35.062Z,14.32
2019-06-08T05:28:06.180Z,14.35
2019-06-08T05:30:37.425Z,14.39
2019-06-08T05:33:08.517Z,14.40
2019-06-08T05:35:39.776Z,14.42
2019-06-08T05:38:10.747Z,14.42
2019-06-08T05:40:42.118Z,14.39
2019-06-08T05:43:13.120Z,14.36
2019-06-08T05:45:45.698Z,14.37
2019-06-08T05:48:16.759Z,14.33
2019-06-08T05:51:00.232Z,14.35
2019-06-08T05:53:20.598Z,14.34
2019-06-08T05:55:52.325Z,14.29
2019-06-08T05:58:23.202Z,14.27
2019-06-08T06:00:53.300Z,14.31
2019-06-08T06:03:24.376Z,14.37
2019-06-08T06:05:55.373Z,14.39
2019-06-08T06:08:26.620Z,14.40
2019-06-08T06:11:00.788Z,14.43
2019-06-08T06:13:31.938Z,14.45
2019-06-08T06:16:03.071Z,14.51
2019-06-08T06:18:34.462Z,14.53
2019-06-08T06:21:11.088Z,14.54
2019-06-08T06:23:38.542Z,14.58
2019-06-08T06:26:09.542Z,14.64
2019-06-08T06:28:43.806Z,14.69
2019-06-08T06:31:14.907Z,14.73
2019-06-08T06:33:45.975Z,14.80
2019-06-08T06:36:17.407Z,14.83
2019-06-08T06:38:50.054Z,14.84
2019-06-08T06:41:21.379Z,14.84
2019-06-08T06:43:52.381Z,14.85
2019-06-08T06:46:23.864Z,14.86
2019-06-08T06:48:54.845Z,14.87
2019-06-08T06:51:26.969Z,14.86
2019-06-08T06:53:57.954Z,14.88
2019-06-08T06:56:29.568Z,14.96
2019-06-08T06:59:00.508Z,15.04
2019-06-08T07:01:32.630Z,15.06
2019-06-08T07:04:03.774Z,15.13
2019-06-08T07:06:34.032Z,15.17
2019-06-08T07:09:06.795Z,15.27
2019-06-08T07:11:37.834Z,15.33
2019-06-08T07:14:09.249Z,15.34
2019-06-08T07:16:40.245Z,15.43
2019-06-08T07:19:14.619Z,15.45
2019-06-08T07:21:46.152Z,15.48
2019-06-08T07:24:17.301Z,15.52
2019-06-08T07:26:48.335Z,15.59
2019-06-08T07:29:19.403Z,15.71
2019-06-08T07:31:51.679Z,15.77
2019-06-08T07:34:23.512Z,15.80
2019-06-08T07:36:55.549Z,15.84
2019-06-08T07:39:26.934Z,15.82
2019-06-08T07:41:57.974Z,15.82
2019-06-08T07:44:28.204Z,15.83
2019-06-08T07:47:00.148Z,15.85
2019-06-08T07:49:31.171Z,15.83
2019-06-08T07:52:10.561Z,15.89
2019-06-08T07:54:40.729Z,15.93
2019-06-08T07:57:14.701Z,16.10
2019-06-08T07:59:45.734Z,16.19
2019-06-08T08:02:17.048Z,16.19
2019-06-08T08:04:48.444Z,16.31
2019-06-08T08:07:19.660Z,16.33
2019-06-08T08:09:50.723Z,16.25
2019-06-08T08:12:21.970Z,16.36
2019-06-08T08:14:53.342Z,16.24
2019-06-08T08:17:23.398Z,16.37
2019-06-08T08:19:55.176Z,16.67
2019-06-08T08:22:29.488Z,16.62
2019-06-08T08:25:03.257Z,16.64
2019-06-08T08:27:32.315Z,16.68
2019-06-08T08:30:05.050Z,16.89
2019-06-08T08:32:38.071Z,16.97
2019-06-08T08:35:09.236Z,17.14
2019-06-08T08:37:40.259Z,17.50
2019-06-08T08:40:12.271Z,17.51
2019-06-08T08:42:43.445Z,17.25
2019-06-08T08:45:15.378Z,17.32
2019-06-08T08:47:48.364Z,17.37
2019-06-08T08:50:19.569Z,17.71
2019-06-08T08:52:51.300Z,18.04
2019-06-08T08:55:22.442Z,18.37
2019-06-08T08:57:54.753Z,18.92
2019-06-08T09:00:27.990Z,19.03
2019-06-08T09:03:13.142Z,18.95
2019-06-08T09:05:33.184Z,18.51
2019-06-08T09:08:08.636Z,18.81
2019-06-08T09:10:40.291Z,18.18
2019-06-08T09:13:12.074Z,18.46
2019-06-08T09:15:43.405Z,18.58
2019-06-08T09:18:14.739Z,18.75
2019-06-08T09:20:47.892Z,18.48
2019-06-08T09:23:21.816Z,18.42
2019-06-08T09:25:53.565Z,18.69
2019-06-08T09:28:24.689Z,18.98
2019-06-08T09:30:56.709Z,19.83
2019-06-08T09:33:28.801Z,20.12
2019-06-08T09:36:02.806Z,20.34
2019-06-08T09:38:32.843Z,20.21
2019-06-08T09:41:05.440Z,19.70
2019-06-08T09:43:38.840Z,19.59
2019-06-08T09:46:09.685Z,20.06
2019-06-08T09:48:40.670Z,20.15
2019-06-08T09:51:12.254Z,20.52
2019-06-08T09:53:43.217Z,20.95
2019-06-08T09:56:14.594Z,20.55
2019-06-08T09:58:45.524Z,20.15
2019-06-08T10:01:18.496Z,20.00
2019-06-08T10:03:49.671Z,20.12
2019-06-08T10:06:21.820Z,20.47
2019-06-08T10:08:54.178Z,21.01
2019-06-08T10:11:24.439Z,21.30
2019-06-08T10:13:59.012Z,21.30
2019-06-08T10:16:30.665Z,21.04
2019-06-08T10:19:03.926Z,21.29
2019-06-08T10:21:34.019Z,21.07
2019-06-08T10:24:08.749Z,21.15
2019-06-08T10:26:38.020Z,21.80
2019-06-08T10:29:10.540Z,22.76
2019-06-08T10:31:43.642Z,22.76
2019-06-08T10:34:14.942Z,22.73
2019-06-08T10:36:46.011Z,21.79
2019-06-08T10:39:20.363Z,21.90
2019-06-08T10:41:53.005Z,22.19
2019-06-08T10:44:23.133Z,21.89
2019-06-08T10:46:54.302Z,21.62
2019-06-08T10:49:27.837Z,22.29
2019-06-08T10:52:01.617Z,23.11
2019-06-08T10:54:33.696Z,22.83
2019-06-08T10:57:07.157Z,23.65
2019-06-08T10:59:40.235Z,23.12
2019-06-08T11:02:14.628Z,22.66
2019-06-08T11:04:48.302Z,22.93
2019-06-08T11:07:18.732Z,23.49
2019-06-08T11:09:59.798Z,23.80
2019-06-08T11:12:31.422Z,23.57
2019-06-08T11:15:09.283Z,22.75
2019-06-08T11:17:39.120Z,23.08
2019-06-08T11:20:11.895Z,23.98
2019-06-08T11:22:43.162Z,24.82
2019-06-08T11:25:16.352Z,24.60
2019-06-08T11:27:47.543Z,24.23
2019-06-08T11:30:24.135Z,24.12
2019-06-08T11:32:52.536Z,23.59
2019-06-08T11:35:23.750Z,24.26
2019-06-08T11:37:54.794Z,25.03
2019-06-08T11:40:27.848Z,23.72
2019-06-08T11:43:00.234Z,24.48
2019-06-08T11:45:31.847Z,24.73
2019-06-08T11:48:04.527Z,23.75
2019-06-08T11:50:41.964Z,24.27
2019-06-08T11:53:14.264Z,24.83
2019-06-08T11:55:44.566Z,24.97
2019-06-08T11:58:21.896Z,24.84
2019-06-08T12:01:04.597Z,25.32
2019-06-08T12:03:34.916Z,24.82
2019-06-08T12:06:14.338Z,24.73
2019-06-08T12:08:47.282Z,23.15
2019-06-08T12:11:19.793Z,23.23
2019-06-08T12:13:50.117Z,24.44
2019-06-08T12:16:24.368Z,24.53
2019-06-08T12:18:58.411Z,23.77
2019-06-08T12:21:28.291Z,23.70
2019-06-08T12:23:59.619Z,24.26
2019-06-08T12:26:30.805Z,25.58
2019-06-08T12:29:02.202Z,26.58
2019-06-08T12:31:33.295Z,25.23
2019-06-08T12:34:05.191Z,24.66
2019-06-08T12:36:37.531Z,24.38
2019-06-08T12:39:10.095Z,25.12
2019-06-08T12:41:41.210Z,25.66
2019-06-08T12:44:15.556Z,25.41
2019-06-08T12:46:48.501Z,26.64
2019-06-08T12:49:20.382Z,26.83
2019-06-08T12:51:51.985Z,25.17
2019-06-08T12:54:23.033Z,23.87
2019-06-08T12:56:54.322Z,24.11
2019-06-08T12:59:25.448Z,24.94
2019-06-08T13:01:58.664Z,25.76
2019-06-08T13:04:29.499Z,25.83
2019-06-08T13:07:01.185Z,26.94
2019-06-08T13:09:32.320Z,26.57
2019-06-08T13:12:03.907Z,26.30
2019-06-08T13:14:34.929Z,25.77
2019-06-08T13:17:08.656Z,24.38
2019-06-08T13:19:40.928Z,24.38
2019-06-08T13:22:11.146Z,25.18
2019-06-08T13:24:43.181Z,26.54
2019-06-08T13:27:15.431Z,26.66
2019-06-08T13:29:48.895Z,25.99
2019-06-08T13:32:21.877Z,26.32
2019-06-08T13:34:53.149Z,26.16
2019-06-08T13:37:24.215Z,26.48
2019-06-08T13:39:55.518Z,26.48
2019-06-08T13:42:27.946Z,25.90
2019-06-08T13:44:59.444Z,25.33
2019-06-08T13:47:30.561Z,27.00
2019-06-08T13:50:02.081Z,26.46
2019-06-08T13:52:33.085Z,27.01
2019-06-08T13:55:09.004Z,27.51
2019-06-08T13:57:40.431Z,27.81
2019-06-08T14:00:11.943Z,27.16
2019-06-08T14:02:44.535Z,25.25
2019-06-08T14:05:24.780Z,25.25
2019-06-08T14:07:51.685Z,24.48
2019-06-08T14:10:34.502Z,24.48
2019-06-08T14:13:06.306Z,25.25
2019-06-08T14:15:38.060Z,25.47
2019-06-08T14:18:09.442Z,25.84
2019-06-08T14:20:40.470Z,26.74
2019-06-08T14:23:11.796Z,26.25
2019-06-08T14:25:50.631Z,25.91
2019-06-08T14:28:19.261Z,26.51
2019-06-08T14:30:48.869Z,27.12
2019-06-08T14:33:25.178Z,26.16
2019-06-08T14:35:55.539Z,26.16
2019-06-08T14:38:34.885Z,25.09
2019-06-08T14:40:59.083Z,24.54
2019-06-08T14:43:31.396Z,24.91
2019-06-08T14:46:02.642Z,25.75
2019-06-08T14:48:34.068Z,26.58
2019-06-08T14:51:05.343Z,27.53
2019-06-08T14:53:38.619Z,26.70
2019-06-08T14:56:09.593Z,26.39
2019-06-08T14:58:40.660Z,25.73
2019-06-08T15:01:12.051Z,25.73
2019-06-08T15:03:43.110Z,26.14
2019-06-08T15:06:14.550Z,26.13
2019-06-08T15:08:50.054Z,26.13
2019-06-08T15:11:19.644Z,25.27
2019-06-08T15:13:50.695Z,25.27
2019-06-08T15:16:21.592Z,24.88
2019-06-08T15:18:52.959Z,25.35
2019-06-08T15:21:25.368Z,25.50
2019-06-08T15:23:58.061Z,25.61
2019-06-08T15:26:39.247Z,25.93
2019-06-08T15:29:02.091Z,26.73
2019-06-08T15:31:33.123Z,26.95
2019-06-08T15:34:04.364Z,26.95
2019-06-08T15:36:35.250Z,27.43
2019-06-08T15:39:07.956Z,26.95
2019-06-08T15:41:38.887Z,26.95
2019-06-08T15:44:10.187Z,26.39
2019-06-08T15:46:41.404Z,26.80
2019-06-08T15:49:11.706Z,26.63
2019-06-08T15:51:43.123Z,25.94
2019-06-08T15:54:14.274Z,25.57
2019-06-08T15:56:49.514Z,25.17
2019-06-08T15:59:18.433Z,25.17
2019-06-08T16:01:49.529Z,25.36
2019-06-08T16:04:20.483Z,25.63
2019-06-08T16:06:51.750Z,26.17
2019-06-08T16:09:23.974Z,26.85
2019-06-08T16:11:55.436Z,26.85
2019-06-08T16:14:26.745Z,27.22
2019-06-08T16:16:58.194Z,27.32
2019-06-08T16:19:29.628Z,26.87
2019-06-08T16:21:59.829Z,26.49
2019-06-08T16:24:31.893Z,26.11
2019-06-08T16:27:02.920Z,24.94
2019-06-08T16:29:35.165Z,24.78
2019-06-08T16:32:06.371Z,24.80
2019-06-08T16:34:37.609Z,24.80
2019-06-08T16:37:10.393Z,24.82
2019-06-08T16:39:41.742Z,24.86
2019-06-08T16:42:12.738Z,25.12
2019-06-08T16:44:44.060Z,24.91
2019-06-08T16:47:15.151Z,25.14
2019-06-08T16:49:46.300Z,25.23
2019-06-08T16:52:20.291Z,25.26
2019-06-08T16:54:50.381Z,24.60
2019-06-08T16:57:21.679Z,24.03
2019-06-08T16:59:52.674Z,24.06
2019-06-08T17:07:23.376Z,23.88
2019-06-08T17:09:54.339Z,24.05
2019-06-08T17:12:25.596Z,24.31
2019-06-08T17:14:56.599Z,24.59
2019-06-08T17:17:27.735Z,24.87
2019-06-08T17:19:58.785Z,24.93
2019-06-08T17:22:30.284Z,24.76
2019-06-08T17:25:01.317Z,24.80
2019-06-08T17:27:34.609Z,24.86
2019-06-08T17:30:08.530Z,24.87
2019-06-08T17:32:40.515Z,24.84
2019-06-08T17:35:12.010Z,24.68
2019-06-08T17:37:43.134Z,24.58
2019-06-08T17:40:14.746Z,24.53
2019-06-08T17:42:45.821Z,24.56
2019-06-08T17:45:18.369Z,24.55
2019-06-08T17:47:49.485Z,23.98
2019-06-08T17:50:22.413Z,23.70
2019-06-08T17:52:53.567Z,23.47
2019-06-08T17:55:25.191Z,23.20
2019-06-08T17:57:56.236Z,23.09
2019-06-08T18:00:27.644Z,22.97
2019-06-08T18:03:00.603Z,22.87
2019-06-08T18:05:30.894Z,22.58
2019-06-08T18:08:02.230Z,22.67
2019-06-08T18:10:34.036Z,22.74
2019-06-08T18:13:07.285Z,22.60
2019-06-08T18:15:39.112Z,22.37
2019-06-08T18:18:11.440Z,22.30
2019-06-08T18:20:43.851Z,22.21
2019-06-08T18:23:18.656Z,22.03
2019-06-08T18:25:50.209Z,21.93
2019-06-08T18:28:21.522Z,21.82
2019-06-08T18:30:53.034Z,21.74
2019-06-08T18:33:24.360Z,21.59
2019-06-08T18:35:57.669Z,21.46
2019-06-08T18:40:58.824Z,21.15
2019-06-08T18:43:28.939Z,21.02
2019-06-08T18:46:00.284Z,20.88
2019-06-08T18:48:31.399Z,20.71
2019-06-08T18:51:04.894Z,20.58
2019-06-08T18:53:49.111Z,20.40
2019-06-08T18:56:08.980Z,20.22
2019-06-08T18:58:40.021Z,20.06
2019-06-08T19:01:11.543Z,19.92
2019-06-08T19:03:45.664Z,19.80
2019-06-08T19:06:18.157Z,19.68
2019-06-08T19:08:57.785Z,19.57
2019-06-08T19:11:24.300Z,19.48
2019-06-08T19:13:57.929Z,19.37
2019-06-08T19:16:29.693Z,19.27
2019-06-08T19:19:00.813Z,19.13
2019-06-08T19:21:30.980Z,19.02
2019-06-08T19:24:02.200Z,18.94
2019-06-08T19:26:33.212Z,18.85
2019-06-08T19:29:04.628Z,18.76
2019-06-08T19:31:38.597Z,18.62
2019-06-08T19:34:08.530Z,18.49
2019-06-08T19:36:41.329Z,18.39
2019-06-08T19:39:12.411Z,18.39
2019-06-08T19:41:44.116Z,18.30
2019-06-08T19:44:15.586Z,18.26
2019-06-08T19:46:51.145Z,18.17
2019-06-08T19:49:20.152Z,18.03
2019-06-08T19:51:53.897Z,17.89
2019-06-08T19:54:22.997Z,17.81
2019-06-08T19:56:54.652Z,17.68
2019-06-08T19:59:27.480Z,17.62
2019-06-08T20:01:59.921Z,17.52
2019-06-08T20:04:31.121Z,17.44
2019-06-08T20:07:02.423Z,17.33
2019-06-08T20:09:33.433Z,17.23
2019-06-08T20:12:04.785Z,17.27
2019-06-08T20:14:37.500Z,17.20
2019-06-08T20:17:08.890Z,17.11
2019-06-08T20:19:42.761Z,17.06
2019-06-08T20:22:14.305Z,17.00
2019-06-08T20:24:47.030Z,16.93
2019-06-08T20:27:18.275Z,16.88
2019-06-08T20:29:51.243Z,16.74
2019-06-08T20:32:21.545Z,16.65
2019-06-08T20:34:53.780Z,16.59
2019-06-08T20:37:27.842Z,16.48
2019-06-08T20:40:09.659Z,16.41
2019-06-08T20:42:32.004Z,16.46
2019-06-08T20:45:04.060Z,16.43
2019-06-08T20:47:36.715Z,16.43
2019-06-08T20:50:08.889Z,16.36
2019-06-08T20:52:39.744Z,16.30
2019-06-08T20:55:11.075Z,16.21
2019-06-08T20:57:43.109Z,16.14
2019-06-08T21:00:14.556Z,16.10
2019-06-08T21:02:46.463Z,16.01
2019-06-08T21:05:19.983Z,15.94
2019-06-08T21:07:55.681Z,15.91
2019-06-08T21:10:28.147Z,15.84
2019-06-08T21:12:59.026Z,15.78
2019-06-08T21:15:29.966Z,15.75
2019-06-08T21:18:04.121Z,15.66
2019-06-08T21:20:37.609Z,15.60
2019-06-08T21:23:09.309Z,15.55
2019-06-08T21:25:40.197Z,15.50
2019-06-08T21:28:11.567Z,15.43
2019-06-08T21:30:42.577Z,15.37
2019-06-08T21:33:13.737Z,15.30
2019-06-08T21:35:44.772Z,15.22
2019-06-08T21:38:23.239Z,15.13
2019-06-08T21:40:50.962Z,14.99
2019-06-08T21:43:20.698Z,14.88
2019-06-08T21:45:53.064Z,14.79
2019-06-08T21:48:24.675Z,14.73
2019-06-08T21:51:01.043Z,14.64
2019-06-08T21:53:31.893Z,14.50
2019-06-08T21:56:03.435Z,14.43
2019-06-08T21:58:34.552Z,14.34
2019-06-08T22:01:07.367Z,14.22
2019-06-08T22:03:40.248Z,14.19
2019-06-08T22:06:12.824Z,14.09
2019-06-08T22:08:43.911Z,14.03
2019-06-08T22:11:17.594Z,14.06
2019-06-08T22:13:47.992Z,14.03
2019-06-08T22:16:19.362Z,13.97
2019-06-08T22:18:51.550Z,13.96
2019-06-08T22:21:22.214Z,13.93
2019-06-08T22:23:55.867Z,13.86
2019-06-08T22:26:28.037Z,13.74
2019-06-08T22:29:00.996Z,13.61
2019-06-08T22:31:32.124Z,13.48
2019-06-08T22:34:04.047Z,13.41
2019-06-08T22:36:37.265Z,13.34
2019-06-08T22:39:08.368Z,13.30
2019-06-08T22:41:39.500Z,13.33
2019-06-08T22:44:10.820Z,13.31
2019-06-08T22:46:41.749Z,13.18
2019-06-08T22:49:15.216Z,13.11
2019-06-08T22:51:47.709Z,13.09
2019-06-08T22:54:18.914Z,13.02
2019-06-08T22:56:50.036Z,12.93
2019-06-08T22:59:20.070Z,12.91
2019-06-08T23:01:51.262Z,12.96
2019-06-08T23:04:22.335Z,12.88
2019-06-08T23:07:29.810Z,12.69
2019-06-08T23:10:08.941Z,12.60
2019-06-08T23:12:39.892Z,12.47
2019-06-08T23:15:11.323Z,12.40
2019-06-08T23:17:42.522Z,12.35
2019-06-08T23:20:14.050Z,12.28
2019-06-08T23:22:47.381Z,12.37
2019-06-08T23:25:18.428Z,12.50
2019-06-08T23:27:49.727Z,12.63
2019-06-08T23:30:20.714Z,12.63
2019-06-08T23:32:52.048Z,12.53
2019-06-08T23:35:23.013Z,12.46
2019-06-08T23:37:54.210Z,12.48
2019-06-08T23:40:27.208Z,12.50
2019-06-08T23:42:58.497Z,12.55
2019-06-08T23:45:30.013Z,12.56
2019-06-08T23:48:01.554Z,12.49
2019-06-08T23:50:34.402Z,12.48
2019-06-08T23:53:09.119Z,12.45
2019-06-08T23:55:38.601Z,12.47
2019-06-08T23:58:11.267Z,12.41
